sensor_id;sensor_type;location;lat;lon;timestamp;P1;durP1;ratioP1;P2;durP2;ratioP2
47259;SDS011;32999;52.412;4.890;2023-06-10T00:01:05;14.13;;;9.25;;
47259;SDS011;32999;52.412;4.890;2023-06-10T00:06:08;53.60;;;26.20;;
47259;SDS011;32999;52.412;4.890;2023-06-10T00:11:10;43.47;;;18.60;;
47259;SDS011;32999;52.412;4.890;2023-06-10T00:16:11;17.90;;;9.48;;
47259;SDS011;32999;52.412;4.890;2023-06-10T00:21:14;14.88;;;5.07;;
47259;SDS011;32999;52.412;4.890;2023-06-10T00:26:15;5.70;;;3.63;;
47259;SDS011;32999;52.412;4.890;2023-06-10T00:31:17;7.75;;;3.22;;
47259;SDS011;32999;52.412;4.890;2023-06-10T00:36:20;7.25;;;3.38;;
47259;SDS011;32999;52.412;4.890;2023-06-10T00:41:21;5.10;;;3.65;;
47259;SDS011;32999;52.412;4.890;2023-06-10T00:46:23;4.60;;;3.50;;
47259;SDS011;32999;52.412;4.890;2023-06-10T00:51:26;7.07;;;3.30;;
47259;SDS011;32999;52.412;4.890;2023-06-10T00:56:28;5.30;;;3.05;;
47259;SDS011;32999;52.412;4.890;2023-06-10T01:01:30;6.40;;;3.20;;
47259;SDS011;32999;52.412;4.890;2023-06-10T01:06:36;7.28;;;3.30;;
47259;SDS011;32999;52.412;4.890;2023-06-10T01:11:41;9.20;;;3.15;;
47259;SDS011;32999;52.412;4.890;2023-06-10T01:16:43;5.72;;;3.20;;
47259;SDS011;32999;52.412;4.890;2023-06-10T01:21:47;10.38;;;4.22;;
47259;SDS011;32999;52.412;4.890;2023-06-10T01:26:48;6.82;;;3.00;;
47259;SDS011;32999;52.412;4.890;2023-06-10T01:31:52;7.03;;;3.22;;
47259;SDS011;32999;52.412;4.890;2023-06-10T01:36:55;4.15;;;2.65;;
47259;SDS011;32999;52.412;4.890;2023-06-10T01:41:58;6.97;;;3.28;;
47259;SDS011;32999;52.412;4.890;2023-06-10T01:47:00;8.63;;;3.40;;
47259;SDS011;32999;52.412;4.890;2023-06-10T01:52:03;7.60;;;3.13;;
47259;SDS011;32999;52.412;4.890;2023-06-10T01:57:04;6.13;;;3.55;;
47259;SDS011;32999;52.412;4.890;2023-06-10T02:02:07;7.28;;;2.83;;
47259;SDS011;32999;52.412;4.890;2023-06-10T02:07:09;9.13;;;3.33;;
47259;SDS011;32999;52.412;4.890;2023-06-10T02:12:12;8.07;;;3.10;;
47259;SDS011;32999;52.412;4.890;2023-06-10T02:17:13;8.90;;;3.25;;
47259;SDS011;32999;52.412;4.890;2023-06-10T02:22:16;9.15;;;3.83;;
47259;SDS011;32999;52.412;4.890;2023-06-10T02:27:18;5.65;;;3.28;;
47259;SDS011;32999;52.412;4.890;2023-06-10T02:32:19;6.53;;;3.42;;
47259;SDS011;32999;52.412;4.890;2023-06-10T02:37:22;9.77;;;4.13;;
47259;SDS011;32999;52.412;4.890;2023-06-10T02:42:23;6.00;;;3.50;;
47259;SDS011;32999;52.412;4.890;2023-06-10T02:47:25;6.38;;;3.63;;
47259;SDS011;32999;52.412;4.890;2023-06-10T02:52:28;6.78;;;3.60;;
47259;SDS011;32999;52.412;4.890;2023-06-10T02:57:30;6.00;;;3.37;;
47259;SDS011;32999;52.412;4.890;2023-06-10T03:02:31;5.45;;;3.38;;
47259;SDS011;32999;52.412;4.890;2023-06-10T03:07:38;6.43;;;3.42;;
47259;SDS011;32999;52.412;4.890;2023-06-10T03:12:39;6.07;;;3.08;;
47259;SDS011;32999;52.412;4.890;2023-06-10T03:17:41;5.60;;;3.72;;
47259;SDS011;32999;52.412;4.890;2023-06-10T03:22:44;7.20;;;3.15;;
47259;SDS011;32999;52.412;4.890;2023-06-10T03:27:45;4.88;;;3.50;;
47259;SDS011;32999;52.412;4.890;2023-06-10T03:32:47;6.45;;;3.58;;
47259;SDS011;32999;52.412;4.890;2023-06-10T03:37:50;11.27;;;4.35;;
47259;SDS011;32999;52.412;4.890;2023-06-10T03:42:51;5.97;;;3.08;;
47259;SDS011;32999;52.412;4.890;2023-06-10T03:47:53;9.40;;;3.85;;
47259;SDS011;32999;52.412;4.890;2023-06-10T03:52:57;6.50;;;3.83;;
47259;SDS011;32999;52.412;4.890;2023-06-10T03:57:59;6.00;;;3.20;;
47259;SDS011;32999;52.412;4.890;2023-06-10T04:03:00;4.85;;;3.15;;
47259;SDS011;32999;52.412;4.890;2023-06-10T04:08:04;5.80;;;3.20;;
47259;SDS011;32999;52.412;4.890;2023-06-10T04:13:07;8.85;;;3.42;;
47259;SDS011;32999;52.412;4.890;2023-06-10T04:18:09;10.07;;;3.80;;
47259;SDS011;32999;52.412;4.890;2023-06-10T04:23:11;9.30;;;4.00;;
47259;SDS011;32999;52.412;4.890;2023-06-10T04:28:13;9.35;;;4.25;;
47259;SDS011;32999;52.412;4.890;2023-06-10T04:33:14;6.15;;;3.65;;
47259;SDS011;32999;52.412;4.890;2023-06-10T04:38:17;8.93;;;3.50;;
47259;SDS011;32999;52.412;4.890;2023-06-10T04:43:19;8.20;;;3.42;;
47259;SDS011;32999;52.412;4.890;2023-06-10T04:48:20;6.88;;;3.70;;
47259;SDS011;32999;52.412;4.890;2023-06-10T04:53:25;7.53;;;2.72;;
47259;SDS011;32999;52.412;4.890;2023-06-10T04:58:27;8.43;;;3.92;;
47259;SDS011;32999;52.412;4.890;2023-06-10T05:03:29;5.72;;;3.80;;
47259;SDS011;32999;52.412;4.890;2023-06-10T05:08:32;6.15;;;3.67;;
47259;SDS011;32999;52.412;4.890;2023-06-10T05:13:34;5.85;;;3.55;;
47259;SDS011;32999;52.412;4.890;2023-06-10T05:18:35;9.63;;;4.47;;
47259;SDS011;32999;52.412;4.890;2023-06-10T05:23:38;6.57;;;3.47;;
47259;SDS011;32999;52.412;4.890;2023-06-10T05:28:40;7.93;;;4.13;;
47259;SDS011;32999;52.412;4.890;2023-06-10T05:33:42;6.20;;;3.88;;
47259;SDS011;32999;52.412;4.890;2023-06-10T05:38:45;7.97;;;3.85;;
47259;SDS011;32999;52.412;4.890;2023-06-10T05:43:46;6.13;;;3.65;;
47259;SDS011;32999;52.412;4.890;2023-06-10T05:48:48;9.13;;;4.22;;
47259;SDS011;32999;52.412;4.890;2023-06-10T05:53:50;7.28;;;3.50;;
47259;SDS011;32999;52.412;4.890;2023-06-10T05:58:52;6.45;;;3.80;;
47259;SDS011;32999;52.412;4.890;2023-06-10T06:03:53;17.77;;;4.72;;
47259;SDS011;32999;52.412;4.890;2023-06-10T06:08:57;6.63;;;3.92;;
47259;SDS011;32999;52.412;4.890;2023-06-10T06:13:58;11.50;;;4.20;;
47259;SDS011;32999;52.412;4.890;2023-06-10T06:18:59;7.40;;;3.78;;
47259;SDS011;32999;52.412;4.890;2023-06-10T06:24:02;10.73;;;4.68;;
47259;SDS011;32999;52.412;4.890;2023-06-10T06:29:04;7.53;;;4.20;;
47259;SDS011;32999;52.412;4.890;2023-06-10T06:34:05;9.45;;;4.30;;
47259;SDS011;32999;52.412;4.890;2023-06-10T06:39:08;6.75;;;4.03;;
47259;SDS011;32999;52.412;4.890;2023-06-10T06:44:10;11.35;;;4.97;;
47259;SDS011;32999;52.412;4.890;2023-06-10T06:49:11;8.05;;;4.00;;
47259;SDS011;32999;52.412;4.890;2023-06-10T06:54:14;6.65;;;4.00;;
47259;SDS011;32999;52.412;4.890;2023-06-10T06:59:16;11.65;;;5.07;;
47259;SDS011;32999;52.412;4.890;2023-06-10T07:04:19;11.67;;;4.80;;
47259;SDS011;32999;52.412;4.890;2023-06-10T07:09:23;9.55;;;4.22;;
47259;SDS011;32999;52.412;4.890;2023-06-10T07:14:25;7.95;;;4.10;;
47259;SDS011;32999;52.412;4.890;2023-06-10T07:19:27;7.18;;;4.30;;
47259;SDS011;32999;52.412;4.890;2023-06-10T07:24:29;9.15;;;3.90;;
47259;SDS011;32999;52.412;4.890;2023-06-10T07:29:31;7.68;;;4.45;;
47259;SDS011;32999;52.412;4.890;2023-06-10T07:34:32;5.90;;;3.63;;
47259;SDS011;32999;52.412;4.890;2023-06-10T07:39:35;6.57;;;4.47;;
47259;SDS011;32999;52.412;4.890;2023-06-10T07:44:37;9.30;;;4.15;;
47259;SDS011;32999;52.412;4.890;2023-06-10T07:49:38;5.40;;;3.92;;
47259;SDS011;32999;52.412;4.890;2023-06-10T07:54:42;10.25;;;4.00;;
47259;SDS011;32999;52.412;4.890;2023-06-10T07:59:44;6.10;;;3.97;;
47259;SDS011;32999;52.412;4.890;2023-06-10T08:04:45;7.90;;;3.55;;
47259;SDS011;32999;52.412;4.890;2023-06-10T08:09:48;5.97;;;4.22;;
47259;SDS011;32999;52.412;4.890;2023-06-10T08:14:49;6.80;;;3.93;;
47259;SDS011;32999;52.412;4.890;2023-06-10T08:19:51;8.00;;;3.85;;
47259;SDS011;32999;52.412;4.890;2023-06-10T08:24:54;9.45;;;4.30;;
47259;SDS011;32999;52.412;4.890;2023-06-10T08:29:56;7.70;;;3.97;;
47259;SDS011;32999;52.412;4.890;2023-06-10T08:34:59;10.52;;;4.25;;
47259;SDS011;32999;52.412;4.890;2023-06-10T08:40:02;7.07;;;3.97;;
47259;SDS011;32999;52.412;4.890;2023-06-10T08:45:04;7.30;;;4.13;;
47259;SDS011;32999;52.412;4.890;2023-06-10T08:50:06;8.98;;;4.70;;
47259;SDS011;32999;52.412;4.890;2023-06-10T08:55:10;9.38;;;4.25;;
47259;SDS011;32999;52.412;4.890;2023-06-10T09:00:12;9.20;;;4.30;;
47259;SDS011;32999;52.412;4.890;2023-06-10T09:05:14;8.43;;;4.50;;
47259;SDS011;32999;52.412;4.890;2023-06-10T09:10:17;8.00;;;3.85;;
47259;SDS011;32999;52.412;4.890;2023-06-10T09:15:18;6.55;;;3.95;;
47259;SDS011;32999;52.412;4.890;2023-06-10T09:20:20;6.47;;;3.75;;
47259;SDS011;32999;52.412;4.890;2023-06-10T09:25:33;9.75;;;4.22;;
47259;SDS011;32999;52.412;4.890;2023-06-10T09:30:35;8.07;;;4.05;;
47259;SDS011;32999;52.412;4.890;2023-06-10T09:35:37;7.40;;;4.35;;
47259;SDS011;32999;52.412;4.890;2023-06-10T09:41:00;7.15;;;4.10;;
47259;SDS011;32999;52.412;4.890;2023-06-10T09:46:02;8.05;;;4.22;;
47259;SDS011;32999;52.412;4.890;2023-06-10T09:51:07;10.07;;;4.40;;
47259;SDS011;32999;52.412;4.890;2023-06-10T09:56:11;8.88;;;3.85;;
47259;SDS011;32999;52.412;4.890;2023-06-10T10:01:13;6.35;;;3.58;;
47259;SDS011;32999;52.412;4.890;2023-06-10T10:06:14;6.63;;;3.63;;
47259;SDS011;32999;52.412;4.890;2023-06-10T10:11:18;8.68;;;3.45;;
47259;SDS011;32999;52.412;4.890;2023-06-10T10:16:21;9.93;;;3.70;;
47259;SDS011;32999;52.412;4.890;2023-06-10T10:21:25;9.60;;;3.72;;
47259;SDS011;32999;52.412;4.890;2023-06-10T10:26:29;8.70;;;3.25;;
47259;SDS011;32999;52.412;4.890;2023-06-10T10:31:32;4.82;;;3.13;;
47259;SDS011;32999;52.412;4.890;2023-06-10T10:36:36;5.15;;;3.15;;
47259;SDS011;32999;52.412;4.890;2023-06-10T10:41:39;6.37;;;3.37;;
47259;SDS011;32999;52.412;4.890;2023-06-10T10:46:44;7.55;;;2.63;;
47259;SDS011;32999;52.412;4.890;2023-06-10T10:51:55;9.98;;;3.08;;
47259;SDS011;32999;52.412;4.890;2023-06-10T10:57:13;5.32;;;3.03;;
47259;SDS011;32999;52.412;4.890;2023-06-10T11:02:15;8.30;;;3.20;;
47259;SDS011;32999;52.412;4.890;2023-06-10T11:07:19;6.40;;;3.10;;
47259;SDS011;32999;52.412;4.890;2023-06-10T11:12:23;5.55;;;3.40;;
47259;SDS011;32999;52.412;4.890;2023-06-10T11:17:25;8.05;;;2.72;;
47259;SDS011;32999;52.412;4.890;2023-06-10T11:22:26;3.85;;;2.97;;
47259;SDS011;32999;52.412;4.890;2023-06-10T11:27:32;7.50;;;2.90;;
47259;SDS011;32999;52.412;4.890;2023-06-10T11:32:38;7.53;;;2.78;;
47259;SDS011;32999;52.412;4.890;2023-06-10T11:37:39;6.05;;;3.13;;
47259;SDS011;32999;52.412;4.890;2023-06-10T11:42:43;7.57;;;3.73;;
47259;SDS011;32999;52.412;4.890;2023-06-10T11:47:55;7.60;;;2.85;;
47259;SDS011;32999;52.412;4.890;2023-06-10T11:52:56;6.73;;;2.97;;
47259;SDS011;32999;52.412;4.890;2023-06-10T11:57:59;5.17;;;2.97;;
47259;SDS011;32999;52.412;4.890;2023-06-10T12:03:01;6.32;;;2.72;;
47259;SDS011;32999;52.412;4.890;2023-06-10T12:08:08;6.07;;;2.83;;
47259;SDS011;32999;52.412;4.890;2023-06-10T12:13:12;6.10;;;2.90;;
47259;SDS011;32999;52.412;4.890;2023-06-10T12:18:16;10.65;;;2.90;;
47259;SDS011;32999;52.412;4.890;2023-06-10T12:23:18;7.28;;;3.08;;
47259;SDS011;32999;52.412;4.890;2023-06-10T12:28:23;6.57;;;2.33;;
47259;SDS011;32999;52.412;4.890;2023-06-10T12:33:25;5.13;;;2.70;;
47259;SDS011;32999;52.412;4.890;2023-06-10T12:38:26;6.90;;;2.65;;
47259;SDS011;32999;52.412;4.890;2023-06-10T12:43:30;6.80;;;3.20;;
47259;SDS011;32999;52.412;4.890;2023-06-10T12:48:32;6.82;;;2.47;;
47259;SDS011;32999;52.412;4.890;2023-06-10T12:53:33;7.13;;;3.45;;
47259;SDS011;32999;52.412;4.890;2023-06-10T12:58:36;7.47;;;2.58;;
47259;SDS011;32999;52.412;4.890;2023-06-10T13:03:38;6.15;;;2.95;;
47259;SDS011;32999;52.412;4.890;2023-06-10T13:08:40;5.75;;;2.80;;
47259;SDS011;32999;52.412;4.890;2023-06-10T13:13:43;5.78;;;2.50;;
47259;SDS011;32999;52.412;4.890;2023-06-10T13:18:46;5.97;;;2.95;;
47259;SDS011;32999;52.412;4.890;2023-06-10T13:23:47;11.13;;;3.45;;
47259;SDS011;32999;52.412;4.890;2023-06-10T13:28:50;6.80;;;3.30;;
47259;SDS011;32999;52.412;4.890;2023-06-10T13:33:52;6.68;;;2.63;;
47259;SDS011;32999;52.412;4.890;2023-06-10T13:38:54;7.30;;;2.60;;
47259;SDS011;32999;52.412;4.890;2023-06-10T13:43:57;4.53;;;2.53;;
47259;SDS011;32999;52.412;4.890;2023-06-10T13:48:58;4.50;;;2.33;;
47259;SDS011;32999;52.412;4.890;2023-06-10T13:54:00;5.45;;;2.70;;
47259;SDS011;32999;52.412;4.890;2023-06-10T13:59:03;4.70;;;3.10;;
47259;SDS011;32999;52.412;4.890;2023-06-10T14:04:04;4.03;;;2.60;;
47259;SDS011;32999;52.412;4.890;2023-06-10T14:09:06;4.00;;;2.33;;
47259;SDS011;32999;52.412;4.890;2023-06-10T14:14:09;6.60;;;2.65;;
47259;SDS011;32999;52.412;4.890;2023-06-10T14:24:12;8.20;;;2.75;;
47259;SDS011;32999;52.412;4.890;2023-06-10T14:29:15;5.72;;;2.80;;
47259;SDS011;32999;52.412;4.890;2023-06-10T14:34:18;3.45;;;2.05;;
47259;SDS011;32999;52.412;4.890;2023-06-10T14:39:19;5.25;;;2.20;;
47259;SDS011;32999;52.412;4.890;2023-06-10T14:44:22;3.45;;;2.25;;
47259;SDS011;32999;52.412;4.890;2023-06-10T14:54:25;6.97;;;2.13;;
47259;SDS011;32999;52.412;4.890;2023-06-10T14:59:28;3.70;;;2.20;;
47259;SDS011;32999;52.412;4.890;2023-06-10T15:04:30;6.97;;;2.53;;
47259;SDS011;32999;52.412;4.890;2023-06-10T15:09:31;5.93;;;2.60;;
47259;SDS011;32999;52.412;4.890;2023-06-10T15:14:34;6.70;;;2.05;;
47259;SDS011;32999;52.412;4.890;2023-06-10T15:19:35;4.55;;;2.45;;
47259;SDS011;32999;52.412;4.890;2023-06-10T15:24:37;4.22;;;2.25;;
47259;SDS011;32999;52.412;4.890;2023-06-10T15:29:40;4.13;;;2.33;;
47259;SDS011;32999;52.412;4.890;2023-06-10T15:34:41;4.20;;;2.97;;
47259;SDS011;32999;52.412;4.890;2023-06-10T15:39:43;10.88;;;2.45;;
47259;SDS011;32999;52.412;4.890;2023-06-10T15:44:45;4.32;;;2.10;;
47259;SDS011;32999;52.412;4.890;2023-06-10T15:49:47;6.15;;;2.90;;
47259;SDS011;32999;52.412;4.890;2023-06-10T15:54:48;4.68;;;2.40;;
47259;SDS011;32999;52.412;4.890;2023-06-10T15:59:51;3.85;;;2.55;;
47259;SDS011;32999;52.412;4.890;2023-06-10T16:04:53;3.92;;;2.15;;
47259;SDS011;32999;52.412;4.890;2023-06-10T16:09:54;3.30;;;2.25;;
47259;SDS011;32999;52.412;4.890;2023-06-10T16:14:57;6.65;;;4.47;;
47259;SDS011;32999;52.412;4.890;2023-06-10T16:19:58;4.75;;;2.80;;
47259;SDS011;32999;52.412;4.890;2023-06-10T16:25:00;2.72;;;2.15;;
47259;SDS011;32999;52.412;4.890;2023-06-10T16:30:03;3.30;;;1.80;;
47259;SDS011;32999;52.412;4.890;2023-06-10T16:35:05;7.07;;;2.13;;
47259;SDS011;32999;52.412;4.890;2023-06-10T16:40:07;3.60;;;2.17;;
47259;SDS011;32999;52.412;4.890;2023-06-10T16:45:10;5.00;;;2.20;;
47259;SDS011;32999;52.412;4.890;2023-06-10T16:50:11;2.90;;;2.10;;
47259;SDS011;32999;52.412;4.890;2023-06-10T16:55:13;3.20;;;1.77;;
47259;SDS011;32999;52.412;4.890;2023-06-10T17:00:16;4.68;;;1.80;;
47259;SDS011;32999;52.412;4.890;2023-06-10T17:05:18;5.15;;;2.13;;
47259;SDS011;32999;52.412;4.890;2023-06-10T17:10:19;3.08;;;1.60;;
47259;SDS011;32999;52.412;4.890;2023-06-10T17:15:22;6.88;;;2.45;;
47259;SDS011;32999;52.412;4.890;2023-06-10T17:20:23;3.92;;;2.10;;
47259;SDS011;32999;52.412;4.890;2023-06-10T17:25:25;3.67;;;2.25;;
47259;SDS011;32999;52.412;4.890;2023-06-10T17:30:29;2.70;;;1.73;;
47259;SDS011;32999;52.412;4.890;2023-06-10T17:35:31;6.10;;;2.33;;
47259;SDS011;32999;52.412;4.890;2023-06-10T17:40:32;3.08;;;1.92;;
47259;SDS011;32999;52.412;4.890;2023-06-10T17:45:36;4.80;;;1.60;;
47259;SDS011;32999;52.412;4.890;2023-06-10T17:50:37;3.75;;;1.80;;
47259;SDS011;32999;52.412;4.890;2023-06-10T17:55:39;7.03;;;3.55;;
47259;SDS011;32999;52.412;4.890;2023-06-10T18:00:54;3.40;;;1.90;;
47259;SDS011;32999;52.412;4.890;2023-06-10T18:05:55;3.00;;;2.03;;
47259;SDS011;32999;52.412;4.890;2023-06-10T18:10:57;3.28;;;1.75;;
47259;SDS011;32999;52.412;4.890;2023-06-10T18:16:00;2.40;;;1.75;;
47259;SDS011;32999;52.412;4.890;2023-06-10T18:21:01;3.17;;;1.65;;
47259;SDS011;32999;52.412;4.890;2023-06-10T18:26:03;3.10;;;1.80;;
47259;SDS011;32999;52.412;4.890;2023-06-10T18:31:06;2.97;;;1.77;;
47259;SDS011;32999;52.412;4.890;2023-06-10T18:36:10;4.13;;;1.88;;
47259;SDS011;32999;52.412;4.890;2023-06-10T18:41:11;5.03;;;2.05;;
47259;SDS011;32999;52.412;4.890;2023-06-10T18:46:15;4.43;;;2.05;;
47259;SDS011;32999;52.412;4.890;2023-06-10T18:51:17;5.00;;;2.38;;
47259;SDS011;32999;52.412;4.890;2023-06-10T18:56:18;4.30;;;1.80;;
47259;SDS011;32999;52.412;4.890;2023-06-10T19:01:21;1.80;;;1.50;;
47259;SDS011;32999;52.412;4.890;2023-06-10T19:06:22;9.05;;;2.20;;
47259;SDS011;32999;52.412;4.890;2023-06-10T19:11:24;4.45;;;2.08;;
47259;SDS011;32999;52.412;4.890;2023-06-10T19:16:27;3.50;;;1.92;;
47259;SDS011;32999;52.412;4.890;2023-06-10T19:26:30;3.53;;;1.90;;
47259;SDS011;32999;52.412;4.890;2023-06-10T19:31:33;4.28;;;2.33;;
47259;SDS011;32999;52.412;4.890;2023-06-10T19:36:35;5.73;;;2.43;;
47259;SDS011;32999;52.412;4.890;2023-06-10T19:41:37;3.67;;;2.42;;
47259;SDS011;32999;52.412;4.890;2023-06-10T19:46:43;7.43;;;2.85;;
47259;SDS011;32999;52.412;4.890;2023-06-10T19:51:45;8.23;;;3.38;;
47259;SDS011;32999;52.412;4.890;2023-06-10T19:56:48;5.50;;;2.53;;
47259;SDS011;32999;52.412;4.890;2023-06-10T20:01:50;6.32;;;2.55;;
47259;SDS011;32999;52.412;4.890;2023-06-10T20:06:52;5.33;;;3.23;;
47259;SDS011;32999;52.412;4.890;2023-06-10T20:11:53;7.20;;;3.33;;
47259;SDS011;32999;52.412;4.890;2023-06-10T20:16:57;6.45;;;2.95;;
47259;SDS011;32999;52.412;4.890;2023-06-10T20:21:59;5.78;;;2.97;;
47259;SDS011;32999;52.412;4.890;2023-06-10T20:27:04;5.43;;;2.50;;
47259;SDS011;32999;52.412;4.890;2023-06-10T20:32:09;5.63;;;2.72;;
47259;SDS011;32999;52.412;4.890;2023-06-10T20:37:11;8.45;;;3.08;;
47259;SDS011;32999;52.412;4.890;2023-06-10T20:42:12;8.82;;;3.10;;
47259;SDS011;32999;52.412;4.890;2023-06-10T20:47:16;7.18;;;2.88;;
47259;SDS011;32999;52.412;4.890;2023-06-10T20:52:18;7.70;;;2.63;;
47259;SDS011;32999;52.412;4.890;2023-06-10T20:57:21;7.53;;;3.20;;
47259;SDS011;32999;52.412;4.890;2023-06-10T21:02:25;8.43;;;3.63;;
47259;SDS011;32999;52.412;4.890;2023-06-10T21:07:26;6.97;;;3.38;;
47259;SDS011;32999;52.412;4.890;2023-06-10T21:12:28;7.40;;;2.97;;
47259;SDS011;32999;52.412;4.890;2023-06-10T21:17:31;7.72;;;2.92;;
47259;SDS011;32999;52.412;4.890;2023-06-10T21:22:32;8.70;;;3.57;;
47259;SDS011;32999;52.412;4.890;2023-06-10T21:27:34;7.65;;;2.70;;
47259;SDS011;32999;52.412;4.890;2023-06-10T21:32:37;4.72;;;2.63;;
47259;SDS011;32999;52.412;4.890;2023-06-10T21:37:38;6.80;;;3.13;;
47259;SDS011;32999;52.412;4.890;2023-06-10T21:42:40;5.93;;;3.47;;
47259;SDS011;32999;52.412;4.890;2023-06-10T21:47:43;6.18;;;2.90;;
47259;SDS011;32999;52.412;4.890;2023-06-10T21:52:44;4.97;;;2.92;;
47259;SDS011;32999;52.412;4.890;2023-06-10T21:57:45;5.32;;;2.70;;
47259;SDS011;32999;52.412;4.890;2023-06-10T22:02:48;5.38;;;2.92;;
47259;SDS011;32999;52.412;4.890;2023-06-10T22:07:50;6.50;;;2.33;;
47259;SDS011;32999;52.412;4.890;2023-06-10T22:12:51;6.90;;;2.92;;
47259;SDS011;32999;52.412;4.890;2023-06-10T22:17:54;6.05;;;2.95;;
47259;SDS011;32999;52.412;4.890;2023-06-10T22:22:56;6.20;;;2.75;;
47259;SDS011;32999;52.412;4.890;2023-06-10T22:27:57;7.18;;;3.22;;
47259;SDS011;32999;52.412;4.890;2023-06-10T22:33:00;5.38;;;2.97;;
47259;SDS011;32999;52.412;4.890;2023-06-10T22:38:02;6.60;;;3.03;;
47259;SDS011;32999;52.412;4.890;2023-06-10T22:43:03;6.78;;;2.72;;
47259;SDS011;32999;52.412;4.890;2023-06-10T22:48:06;8.55;;;2.70;;
47259;SDS011;32999;52.412;4.890;2023-06-10T22:53:07;7.77;;;3.27;;
47259;SDS011;32999;52.412;4.890;2023-06-10T22:58:09;7.43;;;3.30;;
47259;SDS011;32999;52.412;4.890;2023-06-10T23:03:12;6.57;;;2.88;;
47259;SDS011;32999;52.412;4.890;2023-06-10T23:08:14;6.07;;;2.95;;
47259;SDS011;32999;52.412;4.890;2023-06-10T23:13:15;6.05;;;2.60;;
47259;SDS011;32999;52.412;4.890;2023-06-10T23:18:18;5.18;;;2.55;;
47259;SDS011;32999;52.412;4.890;2023-06-10T23:23:19;6.20;;;3.13;;
47259;SDS011;32999;52.412;4.890;2023-06-10T23:28:33;8.03;;;3.30;;
47259;SDS011;32999;52.412;4.890;2023-06-10T23:33:35;7.43;;;3.40;;
47259;SDS011;32999;52.412;4.890;2023-06-10T23:38:38;9.40;;;3.75;;
47259;SDS011;32999;52.412;4.890;2023-06-10T23:43:40;5.90;;;3.45;;
47259;SDS011;32999;52.412;4.890;2023-06-10T23:48:43;10.35;;;3.85;;
47259;SDS011;32999;52.412;4.890;2023-06-10T23:53:44;8.75;;;3.72;;
47259;SDS011;32999;52.412;4.890;2023-06-10T23:58:46;8.75;;;3.22;;
